Portada
METAR-TAF:

METAR-TAF

Aeropuertos :

Aeropuerto Internacional de Kuwait

Ciudad de Kuwait, Kuwait

latitud: 29-13N, longitud: 047-59E, altitud: 55 m

Observación

El informe se hizo hace 32 minutos, a las 03:00 UTC
Viento 5 kt del sur
Temperatura 28°C
Humedad 30%
Presión 1004 hPa
Visibilidad: 6000 m
Cielo despejado

METAR: OKBK 200300Z 19005KT 6000 SKC 28/09 Q1004 NOSIG

Hora: 06:32 (03:32 UTC)

Pronóstico

El informe se hizo hace 4 horas y 47 minutos, a las 22:45 UTC
Pronóstico válido del 20 a las 00 UTC al 21 a las 06 UTC
Viento 10 kt del norte
Visibilidad: 7000 m
Cielo despejado
Temporalmente
del 20 a las 00 UTC al 20 a las 06 UTC
Viento 3 kt con dirección variable

TAF: OKBK 192245Z 2000/2106 35010KT 7000 SKC TEMPO 2000/2006 VRB03KT

Observaciones y pronósticos meteorológicos de más de 4000 aeropuertos (mensajes METAR y TAF).

Los puntos amarillos y rojos representan las estaciones disponibles.

Ponga el ratón en el punto deseado para ver el nombre de la estación.

Haga clic para ver las observaciones y los pronósticos meteorológicos.

Para cambiar el mapa : haga clic en los botones verdes con una cruz de color negro para hacer un zoom, en el botón verde con un guión para alejar o en las flechas verdes para mapas adyacentes.


METAR-TAF: